createdAt,value
2019-04-10T00:01:01.987Z,10.90
2019-04-10T00:03:33.600Z,11.10
2019-04-10T00:06:02.579Z,11.20
2019-04-10T00:08:34.420Z,11.20
2019-04-10T00:11:03.228Z,11.20
2019-04-10T00:13:31.774Z,11.20
2019-04-10T00:16:00.297Z,11.30
2019-04-10T00:18:29.785Z,11.30
2019-04-10T00:20:58.670Z,11.30
2019-04-10T00:23:27.206Z,11.30
2019-04-10T00:25:55.735Z,11.40
2019-04-10T00:28:25.445Z,11.50
2019-04-10T00:30:54.143Z,11.30
2019-04-10T00:33:22.941Z,11.10
2019-04-10T00:35:51.926Z,11.20
2019-04-10T00:38:20.608Z,11.20
2019-04-10T00:40:49.933Z,11.10
2019-04-10T00:43:19.046Z,11.00
2019-04-10T00:45:47.688Z,10.90
2019-04-10T00:48:16.162Z,10.90
2019-04-10T00:50:44.736Z,10.90
2019-04-10T00:53:13.211Z,10.90
2019-04-10T00:55:41.939Z,11.00
2019-04-10T00:58:10.716Z,10.70
2019-04-10T01:00:39.300Z,10.80
2019-04-10T01:03:07.817Z,11.00
2019-04-10T01:05:36.292Z,11.00
2019-04-10T01:08:04.770Z,11.00
2019-04-10T01:10:33.297Z,10.80
2019-04-10T01:13:02.699Z,11.00
2019-04-10T01:15:31.284Z,11.10
2019-04-10T01:17:59.748Z,11.10
2019-04-10T01:20:29.261Z,11.20
2019-04-10T01:22:57.972Z,11.20
2019-04-10T01:25:26.556Z,11.10
2019-04-10T01:27:55.098Z,11.00
2019-04-10T01:30:24.357Z,10.90
2019-04-10T01:32:54.183Z,10.70
2019-04-10T01:35:22.954Z,10.90
2019-04-10T01:37:56.222Z,11.10
2019-04-10T01:40:21.780Z,10.90
2019-04-10T01:43:02.393Z,11.00
2019-04-10T01:45:21.662Z,10.70
2019-04-10T01:47:51.204Z,10.80
2019-04-10T01:50:20.123Z,10.90
2019-04-10T01:52:49.205Z,10.90
2019-04-10T01:55:25.314Z,10.90
2019-04-10T01:57:48.470Z,11.10
2019-04-10T02:00:19.535Z,11.20
2019-04-10T02:02:54.195Z,11.10
2019-04-10T02:05:22.852Z,10.80
2019-04-10T02:08:01.271Z,10.50
2019-04-10T02:10:21.772Z,10.40
2019-04-10T02:12:50.814Z,10.20
2019-04-10T02:15:19.713Z,10.10
2019-04-10T02:17:48.702Z,10.00
2019-04-10T02:20:19.494Z,10.10
2019-04-10T02:22:48.017Z,10.50
2019-04-10T02:25:17.600Z,10.70
2019-04-10T02:27:46.767Z,10.50
2019-04-10T02:30:17.545Z,10.50
2019-04-10T02:32:48.121Z,10.50
2019-04-10T02:35:17.656Z,10.50
2019-04-10T02:37:49.478Z,10.60
2019-04-10T02:40:17.020Z,10.80
2019-04-10T02:42:47.328Z,10.60
2019-04-10T02:45:17.093Z,10.30
2019-04-10T02:47:47.488Z,10.20
2019-04-10T02:50:16.570Z,10.20
2019-04-10T02:52:45.929Z,10.60
2019-04-10T02:55:16.777Z,10.70
2019-04-10T02:57:45.938Z,10.80
2019-04-10T03:00:17.807Z,10.70
2019-04-10T03:02:48.343Z,10.60
2019-04-10T03:05:19.897Z,10.70
2019-04-10T03:07:48.409Z,10.80
2019-04-10T03:10:25.193Z,10.90
2019-04-10T03:12:48.454Z,11.00
2019-04-10T03:15:19.557Z,10.90
2019-04-10T03:17:48.730Z,10.80
2019-04-10T03:20:18.749Z,10.60
2019-04-10T03:22:47.561Z,10.40
2019-04-10T03:25:17.812Z,10.40
2019-04-10T03:27:46.884Z,10.60
2019-04-10T03:30:15.686Z,10.50
2019-04-10T03:32:51.665Z,10.30
2019-04-10T03:35:26.978Z,10.00
2019-04-10T03:37:55.547Z,10.00
2019-04-10T03:40:25.593Z,9.90
2019-04-10T03:42:55.027Z,10.00
2019-04-10T03:45:24.320Z,9.90
2019-04-10T03:47:52.983Z,10.00
2019-04-10T03:50:21.611Z,10.10
2019-04-10T03:52:50.072Z,10.50
2019-04-10T03:55:18.900Z,10.50
2019-04-10T03:57:47.507Z,10.40
2019-04-10T04:00:18.143Z,10.50
2019-04-10T04:02:48.329Z,10.30
2019-04-10T04:05:16.856Z,10.00
2019-04-10T04:07:46.284Z,9.90
2019-04-10T04:10:16.264Z,10.20
2019-04-10T04:12:44.972Z,10.40
2019-04-10T04:15:13.648Z,10.60
2019-04-10T04:17:42.286Z,10.50
2019-04-10T04:20:11.297Z,10.60
2019-04-10T04:22:39.758Z,10.60
2019-04-10T04:25:08.696Z,10.50
2019-04-10T04:27:37.769Z,10.60
2019-04-10T04:30:08.489Z,10.60
2019-04-10T04:32:37.958Z,10.70
2019-04-10T04:35:06.652Z,10.70
2019-04-10T04:37:35.781Z,10.50
2019-04-10T04:40:05.668Z,10.10
2019-04-10T04:42:35.157Z,10.30
2019-04-10T04:45:05.996Z,10.40
2019-04-10T04:47:34.447Z,10.50
2019-04-10T04:50:03.608Z,10.60
2019-04-10T04:52:32.776Z,10.70
2019-04-10T04:55:01.935Z,10.70
2019-04-10T04:57:30.955Z,10.60
2019-04-10T05:00:01.140Z,10.60
2019-04-10T05:02:30.274Z,10.60
2019-04-10T05:05:00.300Z,10.40
2019-04-10T05:07:29.180Z,10.40
2019-04-10T05:09:59.920Z,10.20
2019-04-10T05:12:28.027Z,10.30
2019-04-10T05:14:57.647Z,10.50
2019-04-10T05:17:26.321Z,10.60
2019-04-10T05:19:57.179Z,10.60
2019-04-10T05:22:25.047Z,10.80
2019-04-10T05:24:54.394Z,10.80
2019-04-10T05:27:23.140Z,10.90
2019-04-10T05:29:51.650Z,10.70
2019-04-10T05:32:21.319Z,10.70
2019-04-10T05:34:50.405Z,10.80
2019-04-10T05:37:19.216Z,10.70
2019-04-10T05:39:50.765Z,10.50
2019-04-10T05:42:17.927Z,10.60
2019-04-10T05:44:46.407Z,10.90
2019-04-10T05:47:14.871Z,10.90
2019-04-10T05:49:44.932Z,11.00
2019-04-10T05:52:14.746Z,11.00
2019-04-10T05:54:43.804Z,10.90
2019-04-10T05:57:12.517Z,11.00
2019-04-10T05:59:41.044Z,10.80
2019-04-10T06:02:15.774Z,10.90
2019-04-10T06:04:46.489Z,10.70
2019-04-10T06:07:14.978Z,10.80
2019-04-10T06:09:53.995Z,10.80
2019-04-10T06:12:13.911Z,10.80
2019-04-10T06:14:42.553Z,11.00
2019-04-10T06:17:11.128Z,11.00
2019-04-10T06:19:40.552Z,11.10
2019-04-10T06:22:10.923Z,11.10
2019-04-10T06:24:40.424Z,11.40
2019-04-10T06:27:10.254Z,11.50
2019-04-10T06:29:39.318Z,11.50
2019-04-10T06:32:07.987Z,11.60
2019-04-10T06:34:36.527Z,11.50
2019-04-10T06:37:06.132Z,11.60
2019-04-10T06:39:35.200Z,11.50
2019-04-10T06:42:04.500Z,11.60
2019-04-10T06:44:34.171Z,11.80
2019-04-10T06:47:02.768Z,11.80
2019-04-10T06:49:31.328Z,11.90
2019-04-10T06:51:59.812Z,11.90
2019-04-10T06:54:28.877Z,11.80
2019-04-10T06:56:58.598Z,11.90
2019-04-10T06:59:28.259Z,11.90
2019-04-10T07:02:11.369Z,11.90
2019-04-10T07:04:28.714Z,11.80
2019-04-10T07:07:04.510Z,11.60
2019-04-10T07:09:27.599Z,11.90
2019-04-10T07:11:59.848Z,11.60
2019-04-10T07:14:26.784Z,11.70
2019-04-10T07:16:55.415Z,11.80
2019-04-10T07:19:24.217Z,11.60
2019-04-10T07:21:52.859Z,11.80
2019-04-10T07:24:21.436Z,12.00
2019-04-10T07:26:50.987Z,12.20
2019-04-10T07:29:21.087Z,12.40
2019-04-10T07:31:50.905Z,12.20
2019-04-10T07:34:23.865Z,12.00
2019-04-10T07:36:51.947Z,12.10
2019-04-10T07:39:19.984Z,12.10
2019-04-10T07:41:49.324Z,12.00
2019-04-10T07:44:19.483Z,12.20
2019-04-10T07:46:48.853Z,12.00
2019-04-10T07:49:20.541Z,12.20
2019-04-10T07:51:49.564Z,12.40
2019-04-10T07:54:20.985Z,12.60
2019-04-10T07:56:49.388Z,12.30
2019-04-10T07:59:18.472Z,12.20
2019-04-10T08:01:50.149Z,12.10
2019-04-10T08:04:18.631Z,12.20
2019-04-10T08:06:47.131Z,11.90
2019-04-10T08:09:16.520Z,12.30
2019-04-10T08:11:45.395Z,12.50
2019-04-10T08:14:14.830Z,12.50
2019-04-10T08:16:43.635Z,12.80
2019-04-10T08:19:12.431Z,12.70
2019-04-10T08:21:42.267Z,12.60
2019-04-10T08:24:11.439Z,12.00
2019-04-10T08:26:40.954Z,12.00
2019-04-10T08:29:09.929Z,11.60
2019-04-10T08:31:39.548Z,11.70
2019-04-10T08:34:09.647Z,11.60
2019-04-10T08:36:39.383Z,11.70
2019-04-10T08:39:08.188Z,11.50
2019-04-10T08:41:37.246Z,11.80
2019-04-10T08:44:06.474Z,11.80
2019-04-10T08:46:35.726Z,11.80
2019-04-10T08:49:05.619Z,11.80
2019-04-10T08:51:35.300Z,11.80
2019-04-10T08:54:03.834Z,11.30
2019-04-10T08:56:32.367Z,11.40
2019-04-10T08:59:00.819Z,11.80
2019-04-10T09:01:29.634Z,11.60
2019-04-10T09:03:58.092Z,11.80
2019-04-10T09:06:27.254Z,11.80
2019-04-10T09:08:57.119Z,12.20
2019-04-10T09:11:28.445Z,12.00
2019-04-10T09:13:56.905Z,11.90
2019-04-10T09:16:26.665Z,11.80
2019-04-10T09:18:55.768Z,11.90
2019-04-10T09:21:24.392Z,11.80
2019-04-10T09:23:56.013Z,11.90
2019-04-10T09:26:23.046Z,11.80
2019-04-10T09:28:52.856Z,11.70
2019-04-10T09:31:31.515Z,11.90
2019-04-10T09:33:59.606Z,11.90
2019-04-10T09:36:29.090Z,12.00
2019-04-10T09:39:01.244Z,11.90
2019-04-10T09:41:32.034Z,11.90
2019-04-10T09:44:00.791Z,11.80
2019-04-10T09:46:31.040Z,11.50
2019-04-10T09:49:02.593Z,11.40
2019-04-10T09:51:31.889Z,11.20
2019-04-10T09:54:02.284Z,11.20
2019-04-10T09:56:30.732Z,11.20
2019-04-10T09:59:00.956Z,11.20
2019-04-10T10:01:30.306Z,11.20
2019-04-10T10:03:59.251Z,11.40
2019-04-10T10:06:33.085Z,11.50
2019-04-10T10:08:58.460Z,11.60
2019-04-10T10:11:27.257Z,11.70
2019-04-10T10:13:56.433Z,12.00
2019-04-10T10:16:25.472Z,12.10
2019-04-10T10:18:54.317Z,12.10
2019-04-10T10:21:24.034Z,12.20
2019-04-10T10:23:53.974Z,12.30
2019-04-10T10:26:23.868Z,12.60
2019-04-10T10:28:52.655Z,12.40
2019-04-10T10:31:22.116Z,12.40
2019-04-10T10:33:50.855Z,12.40
2019-04-10T10:36:19.958Z,12.20
2019-04-10T10:38:56.981Z,12.50
2019-04-10T10:41:20.219Z,12.70
2019-04-10T10:43:48.910Z,12.90
2019-04-10T10:46:17.651Z,13.00
2019-04-10T10:48:46.217Z,13.20
2019-04-10T10:51:14.890Z,13.10
2019-04-10T10:53:44.103Z,12.90
2019-04-10T10:56:13.919Z,13.00
2019-04-10T10:58:42.587Z,12.90
2019-04-10T11:01:11.603Z,12.90
2019-04-10T11:03:40.549Z,13.10
2019-04-10T11:06:09.258Z,13.10
2019-04-10T11:08:37.821Z,13.10
2019-04-10T11:11:06.323Z,12.70
2019-04-10T11:13:34.826Z,12.70
2019-04-10T11:16:05.637Z,12.80
2019-04-10T11:18:34.815Z,12.60
2019-04-10T11:21:08.031Z,12.40
2019-04-10T11:23:34.200Z,12.50
2019-04-10T11:26:04.553Z,12.50
2019-04-10T11:28:33.791Z,12.30
2019-04-10T11:31:02.844Z,12.20
2019-04-10T11:33:32.868Z,12.20
2019-04-10T11:36:01.638Z,12.20
2019-04-10T11:38:30.168Z,12.00
2019-04-10T11:41:00.104Z,11.90
2019-04-10T11:43:30.247Z,12.20
2019-04-10T11:46:02.206Z,12.20
2019-04-10T11:48:29.505Z,12.40
2019-04-10T11:50:59.707Z,12.40
2019-04-10T11:53:28.893Z,12.40
2019-04-10T11:56:00.154Z,12.40
2019-04-10T11:58:28.939Z,12.50
2019-04-10T12:00:59.614Z,12.40
2019-04-10T12:03:28.250Z,12.40
2019-04-10T12:05:57.801Z,12.50
2019-04-10T12:08:50.330Z,12.80
2019-04-10T12:13:27.530Z,12.70
2019-04-10T12:15:56.730Z,12.60
2019-04-10T12:18:25.324Z,12.70
2019-04-10T12:20:53.803Z,12.50
2019-04-10T12:23:23.116Z,12.60
2019-04-10T12:25:52.155Z,12.50
2019-04-10T12:28:22.114Z,12.70
2019-04-10T12:30:51.297Z,12.70
2019-04-10T12:33:21.201Z,13.00
2019-04-10T12:35:50.041Z,13.10
2019-04-10T12:38:19.300Z,13.00
2019-04-10T12:40:48.026Z,12.90
2019-04-10T12:43:16.784Z,12.60
2019-04-10T12:45:46.439Z,12.70
2019-04-10T12:48:34.742Z,13.00
2019-04-10T12:51:03.547Z,13.00
2019-04-10T12:53:32.049Z,13.40
2019-04-10T12:56:00.499Z,13.60
2019-04-10T12:58:29.039Z,13.50
2019-04-10T13:00:58.365Z,13.50
2019-04-10T13:03:27.353Z,13.70
2019-04-10T13:05:55.979Z,14.10
2019-04-10T13:08:31.395Z,13.70
2019-04-10T13:10:54.645Z,13.60
2019-04-10T13:13:24.229Z,13.80
2019-04-10T13:15:54.095Z,14.00
2019-04-10T13:18:22.844Z,14.20
2019-04-10T13:20:51.390Z,14.20
2019-04-10T13:23:20.474Z,13.90
2019-04-10T13:25:55.528Z,13.40
2019-04-10T13:28:19.632Z,13.10
2019-04-10T13:30:53.176Z,13.20
2019-04-10T13:33:18.384Z,12.90
2019-04-10T13:35:46.845Z,12.70
2019-04-10T13:38:23.960Z,12.90
2019-04-10T13:40:45.923Z,12.90
2019-04-10T13:43:15.875Z,12.70
2019-04-10T13:45:45.736Z,12.60
2019-04-10T13:48:14.585Z,12.70
2019-04-10T13:50:43.218Z,12.90
2019-04-10T13:53:11.666Z,13.00
2019-04-10T13:55:40.154Z,13.00
2019-04-10T13:58:08.834Z,12.90
2019-04-10T14:00:40.739Z,12.90
2019-04-10T14:03:10.152Z,13.00
2019-04-10T14:05:39.055Z,13.10
2019-04-10T14:08:08.429Z,13.00
2019-04-10T14:10:40.496Z,12.90
2019-04-10T14:13:07.498Z,12.90
2019-04-10T14:15:36.231Z,13.10
2019-04-10T14:18:06.126Z,13.20
2019-04-10T14:20:35.424Z,12.90
2019-04-10T14:23:06.348Z,12.60
2019-04-10T14:25:49.772Z,12.80
2019-04-10T14:28:20.934Z,12.90
2019-04-10T14:30:49.641Z,12.90
2019-04-10T14:33:19.114Z,12.90
2019-04-10T14:35:47.920Z,12.90
2019-04-10T14:38:17.014Z,12.80
2019-04-10T14:40:46.065Z,12.70
2019-04-10T14:43:15.072Z,12.70
2019-04-10T14:45:43.767Z,12.80
2019-04-10T14:48:12.428Z,12.90
2019-04-10T14:50:41.790Z,13.00
2019-04-10T14:53:11.680Z,13.10
2019-04-10T14:55:40.411Z,13.10
2019-04-10T14:58:20.459Z,13.00
2019-04-10T15:00:41.303Z,12.80
2019-04-10T15:03:09.831Z,12.80
2019-04-10T15:05:45.442Z,12.70
2019-04-10T15:08:09.234Z,12.60
2019-04-10T15:10:37.934Z,12.60
2019-04-10T15:13:10.214Z,12.70
2019-04-10T15:15:36.643Z,12.60
2019-04-10T15:18:06.567Z,12.60
2019-04-10T15:20:35.604Z,12.60
2019-04-10T15:23:04.996Z,12.70
2019-04-10T15:25:33.700Z,12.60
2019-04-10T15:28:02.273Z,12.70
2019-04-10T15:30:30.883Z,12.70
2019-04-10T15:33:00.365Z,12.80
2019-04-10T15:35:29.091Z,12.90
2019-04-10T15:37:57.814Z,12.90
2019-04-10T15:40:27.668Z,13.00
2019-04-10T15:42:56.777Z,13.00
2019-04-10T15:45:26.040Z,12.90
2019-04-10T15:47:57.533Z,12.80
2019-04-10T15:50:24.776Z,12.80
2019-04-10T15:52:53.653Z,12.90
2019-04-10T15:55:22.379Z,13.00
2019-04-10T15:57:55.238Z,13.00
2019-04-10T16:00:21.260Z,13.10
2019-04-10T16:02:50.950Z,13.00
2019-04-10T16:05:19.727Z,12.90
2019-04-10T16:07:48.994Z,13.10
2019-04-10T16:10:28.895Z,13.00
2019-04-10T16:12:59.734Z,13.00
2019-04-10T16:15:30.010Z,12.90
2019-04-10T16:18:03.205Z,12.80
2019-04-10T16:20:33.709Z,12.90
2019-04-10T16:23:08.065Z,12.80
2019-04-10T16:25:36.852Z,12.90
2019-04-10T16:28:06.286Z,12.90
2019-04-10T16:30:35.053Z,12.90
2019-04-10T16:33:04.848Z,12.80
2019-04-10T16:35:35.365Z,12.80
2019-04-10T16:38:05.213Z,12.70
2019-04-10T16:40:36.151Z,12.70
2019-04-10T16:43:06.114Z,12.80
2019-04-10T16:45:34.950Z,12.80
2019-04-10T16:48:03.925Z,12.80
2019-04-10T16:50:32.536Z,12.90
2019-04-10T16:53:01.358Z,12.80
2019-04-10T16:55:32.537Z,12.90
2019-04-10T16:58:01.227Z,12.90
2019-04-10T17:00:31.115Z,12.90
2019-04-10T17:02:59.762Z,12.90
2019-04-10T17:05:28.275Z,12.80
2019-04-10T17:07:57.329Z,12.70
2019-04-10T17:10:29.114Z,12.70
2019-04-10T17:12:58.340Z,12.70
2019-04-10T17:15:28.072Z,12.50
2019-04-10T17:17:56.972Z,12.60
2019-04-10T17:20:34.856Z,12.60
2019-04-10T17:22:58.770Z,12.50
2019-04-10T17:25:33.899Z,12.60
2019-04-10T17:28:03.758Z,12.60
2019-04-10T17:30:33.790Z,12.60
2019-04-10T17:33:02.828Z,12.50
2019-04-10T17:35:31.695Z,12.60
2019-04-10T17:38:00.510Z,12.50
2019-04-10T17:40:35.428Z,12.50
2019-04-10T17:42:59.265Z,12.60
2019-04-10T17:45:30.883Z,12.50
2019-04-10T17:48:00.816Z,12.50
2019-04-10T17:50:30.088Z,12.50
2019-04-10T17:52:58.978Z,12.50
2019-04-10T17:55:27.558Z,12.60
2019-04-10T17:57:57.691Z,12.50
2019-04-10T18:00:31.249Z,12.50
2019-04-10T18:03:01.129Z,12.50
2019-04-10T18:05:30.756Z,12.50
2019-04-10T18:08:00.693Z,12.50
2019-04-10T18:10:41.189Z,12.40
2019-04-10T18:12:59.504Z,12.40
2019-04-10T18:15:28.254Z,12.30
2019-04-10T18:17:57.644Z,12.40
2019-04-10T18:20:26.348Z,12.40
2019-04-10T18:22:55.325Z,12.40
2019-04-10T18:25:24.084Z,12.40
2019-04-10T18:27:52.553Z,12.30
2019-04-10T18:30:21.764Z,12.30
2019-04-10T18:32:50.223Z,12.00
2019-04-10T18:35:20.204Z,12.10
2019-04-10T18:37:49.094Z,11.90
2019-04-10T18:40:19.001Z,12.00
2019-04-10T18:42:49.135Z,11.80
2019-04-10T18:45:17.615Z,11.90
2019-04-10T18:47:46.153Z,12.00
2019-04-10T18:50:16.040Z,11.90
2019-04-10T18:52:45.642Z,12.00
2019-04-10T18:55:14.292Z,11.90
2019-04-10T18:57:43.194Z,12.00
2019-04-10T19:00:20.248Z,12.00
2019-04-10T19:02:59.258Z,12.00
2019-04-10T19:05:38.431Z,12.00
2019-04-10T19:08:07.100Z,12.00
2019-04-10T19:10:36.576Z,11.70
2019-04-10T19:13:05.559Z,11.80
2019-04-10T19:15:35.068Z,11.80
2019-04-10T19:18:03.845Z,11.80
2019-04-10T19:20:33.076Z,11.80
2019-04-10T19:23:03.193Z,11.80
2019-04-10T19:25:32.495Z,11.60
2019-04-10T19:28:01.266Z,11.80
2019-04-10T19:30:34.163Z,11.70
2019-04-10T19:33:03.842Z,11.50
2019-04-10T19:35:32.331Z,11.50
2019-04-10T19:38:01.034Z,11.50
2019-04-10T19:40:32.012Z,11.50
2019-04-10T19:43:01.852Z,11.40
2019-04-10T19:45:32.077Z,11.20
2019-04-10T19:48:01.281Z,11.20
2019-04-10T19:50:29.818Z,11.20
2019-04-10T19:52:58.296Z,11.10
2019-04-10T19:55:27.477Z,11.10
2019-04-10T19:57:56.091Z,11.10
2019-04-10T20:00:26.309Z,11.00
2019-04-10T20:02:57.778Z,11.00
2019-04-10T20:05:27.241Z,11.10
2019-04-10T20:07:57.493Z,11.10
2019-04-10T20:10:25.952Z,11.00
2019-04-10T20:12:55.144Z,10.90
2019-04-10T20:15:24.700Z,10.90
2019-04-10T20:17:57.558Z,10.80
2019-04-10T20:20:26.985Z,10.80
2019-04-10T20:22:55.668Z,10.80
2019-04-10T20:25:26.258Z,10.90
2019-04-10T20:27:56.397Z,11.00
2019-04-10T20:30:26.510Z,11.10
2019-04-10T20:32:55.047Z,11.20
2019-04-10T20:35:25.042Z,11.20
2019-04-10T20:37:53.710Z,11.00
2019-04-10T20:40:25.535Z,11.00
2019-04-10T20:42:52.432Z,10.80
2019-04-10T20:45:21.544Z,11.00
2019-04-10T20:47:50.384Z,10.80
2019-04-10T20:50:19.669Z,10.90
2019-04-10T20:52:48.357Z,10.60
2019-04-10T20:55:17.472Z,10.90
2019-04-10T20:57:46.286Z,10.90
2019-04-10T21:00:20.365Z,10.70
2019-04-10T21:02:48.934Z,10.60
2019-04-10T21:05:17.996Z,10.80
2019-04-10T21:07:46.713Z,10.90
2019-04-10T21:10:15.186Z,10.90
2019-04-10T21:12:44.140Z,10.90
2019-04-10T21:15:13.194Z,10.90
2019-04-10T21:17:42.445Z,10.90
2019-04-10T21:20:13.217Z,10.90
2019-04-10T21:22:41.440Z,10.70
2019-04-10T21:25:12.651Z,10.90
2019-04-10T21:27:48.543Z,11.00
2019-04-10T21:30:20.425Z,10.80
2019-04-10T21:33:08.927Z,11.00
2019-04-10T21:35:38.910Z,10.90
2019-04-10T21:38:07.438Z,10.80
2019-04-10T21:40:35.974Z,10.60
2019-04-10T21:43:04.457Z,10.70
2019-04-10T21:45:35.023Z,10.60
2019-04-10T21:48:12.524Z,10.70
2019-04-10T21:50:41.777Z,10.80
2019-04-10T21:53:10.348Z,10.70
2019-04-10T21:55:39.599Z,10.80
2019-04-10T21:58:08.265Z,10.80
2019-04-10T22:00:57.216Z,10.60
2019-04-10T22:03:28.221Z,10.70
2019-04-10T22:06:05.751Z,10.80
2019-04-10T22:08:42.149Z,10.80
2019-04-10T22:11:12.847Z,10.80
2019-04-10T22:13:41.477Z,10.60
2019-04-10T22:16:11.583Z,10.50
2019-04-10T22:18:41.255Z,10.50
2019-04-10T22:21:10.300Z,10.40
2019-04-10T22:23:38.831Z,10.40
2019-04-10T22:26:07.375Z,10.70
2019-04-10T22:28:35.861Z,10.70
2019-04-10T22:31:04.325Z,10.80
2019-04-10T22:33:32.805Z,10.80
2019-04-10T22:36:02.897Z,10.90
2019-04-10T22:38:31.427Z,10.70
2019-04-10T22:41:00.221Z,10.80
2019-04-10T22:43:30.053Z,10.80
2019-04-10T22:45:58.669Z,10.80
2019-04-10T22:48:27.177Z,10.80
2019-04-10T22:50:55.788Z,10.80
2019-04-10T22:53:25.457Z,10.80
2019-04-10T22:55:54.289Z,10.80
2019-04-10T22:58:22.852Z,10.90
2019-04-10T23:00:51.373Z,10.90
2019-04-10T23:03:22.315Z,10.80
2019-04-10T23:05:51.039Z,10.90
2019-04-10T23:08:19.854Z,10.80
2019-04-10T23:10:48.906Z,10.70
2019-04-10T23:13:18.113Z,10.80
2019-04-10T23:15:47.374Z,10.80
2019-04-10T23:18:21.693Z,10.70
2019-04-10T23:20:54.230Z,10.80
2019-04-10T23:23:23.130Z,10.80
2019-04-10T23:25:52.962Z,10.60
2019-04-10T23:28:21.688Z,10.60
2019-04-10T23:30:50.955Z,10.70
2019-04-10T23:33:19.765Z,10.70
2019-04-10T23:35:48.263Z,10.60
2019-04-10T23:38:17.498Z,10.60
2019-04-10T23:40:47.212Z,10.50
2019-04-10T23:43:18.098Z,10.60
2019-04-10T23:45:46.261Z,10.60
2019-04-10T23:48:17.648Z,10.60
2019-04-10T23:50:46.173Z,10.50
2019-04-10T23:53:16.450Z,10.50
2019-04-10T23:55:46.123Z,10.50
2019-04-10T23:58:15.888Z,10.30
